SSVV weather

Fazenda Vaticano Airport
Nioaque, Mato Grosso do Sul, Brazil

Public forecast

Using degrees Celsius for public forecast. Weather courtesy of forecast.io.

METAR (pilot weather report)

Report is more than 6 hours old.

Closest report is Fazenda Ipiranga Airport, 36.2 nm (67.1 km) ENE. Retrieved 2009/10/25 00:00 UTC (9 years ago):

SSME 250000Z 00000KT CAVOK 18/M03 Q1012

TAF (pilot weather forecast)

Forecast is more than 12 hours old.

Closest forecast is Ponta PorĂ£ Airport, 78.8 nm (146.0 km) SSE. Retrieved 2019/04/18 18:04 UTC (22 hours ago):

TAF SBPP 181530Z 1818/1918 02005KT 9999 FEW020 TX30/1818Z TN21/1908Z BECMG 1820/1822 CAVOK BECMG 1912/1914 9999 FEW020 RMK PER